Torm Horizon — OYNM2 — position and weather

sailwx.info

Track history (hours):
 
Tides and Currents Weather Stations Pressure Air Temp Water Temp Dewpoint Dewpoint Depression Visibility Wind Speed Wind Dir Waves Ship Positions

Torm Horizon

Last reported at 2017-Jan-18 07:23 UTC. Time now 2017-Jan-18 18:04 UTC.
Position N 34°22' E 032°31'.

Length 183 m; draft 7.6 m.

Type: Ship. MMSI: 220566000.

Date/timePositionNaut miles runAvg speedWind from/ knotsBaromVisibWave heightAir tempDewpointWater temp
2017-Jan-18 07:23N 34°22' E 032°31'9 8.9
2017-Jan-18 06:22N 34°20' E 032°42'3 1.7
2017-Jan-18 04:29N 34°19' E 032°45'1 0.8
2017-Jan-18 03:24N 34°18' E 032°46'1 1.1
2017-Jan-18 02:33N 34°18' E 032°47'1 1.2
2017-Jan-18 01:31N 34°18' E 032°49'1 1.3
2017-Jan-18 00:33N 34°18' E 032°50'2 1.6
2017-Jan-17 23:33N 34°17' E 032°52'2 1.9
2017-Jan-17 22:33N 34°17' E 032°54'14 1.7
2017-Jan-17 14:29N 34°10' E 033°08'1011.0
2017-Jan-17 13:34N 34°20' E 033°10'  
2017-Jan-14 15:33N 34°29' E 033°19'1313.0
2017-Jan-14 14:33N 34°42' E 033°20'  
2017-Jan-11 14:28N 34°43' E 033°19'1 0.9
2017-Jan-11 13:31N 34°42' E 033°20'0 0.1
2017-Jan-11 12:22N 34°42' E 033°20'0 0.0
2017-Jan-11 11:19N 34°42' E 033°20'0 0.0
2017-Jan-11 10:31N 34°42' E 033°20'0 0.0
2017-Jan-11 09:31N 34°42' E 033°20'0 0.0
2017-Jan-11 08:28N 34°42' E 033°20'0 0.0
2017-Jan-11 07:31N 34°42' E 033°20'0 0.0
2017-Jan-11 06:25N 34°42' E 033°20'0 0.0
2017-Jan-11 05:34N 34°42' E 033°20'0 0.0
2017-Jan-11 04:34N 34°42' E 033°20'0 0.0
2017-Jan-11 03:33N 34°42' E 033°20'0 0.0
2017-Jan-11 02:33N 34°42' E 033°20'0 0.0
2017-Jan-11 01:30N 34°42' E 033°20'0 0.0
2017-Jan-11 00:33N 34°42' E 033°20'0 0.0
2017-Jan-10 23:30N 34°42' E 033°20'0 0.0
2017-Jan-10 22:33N 34°42' E 033°20'0 0.0
2017-Jan-10 21:33N 34°42' E 033°20'0 0.0
2017-Jan-10 20:33N 34°42' E 033°20'0 0.1
2017-Jan-10 19:33N 34°42' E 033°20'0 0.1
2017-Jan-10 18:33N 34°42' E 033°20'0 0.0
2017-Jan-10 17:33N 34°42' E 033°20'0 0.0
2017-Jan-10 16:33N 34°42' E 033°20'0 0.0
2017-Jan-10 15:30N 34°42' E 033°20'0 0.0
2017-Jan-10 14:33N 34°42' E 033°20'0 0.0
2017-Jan-10 13:33N 34°42' E 033°20'0 0.0
2017-Jan-10 12:33N 34°42' E 033°20'0 0.0
2017-Jan-10 11:30N 34°42' E 033°20'0 0.0
2017-Jan-10 10:33N 34°42' E 033°20'0 0.0
2017-Jan-10 09:33N 34°42' E 033°20'0 0.0
2017-Jan-10 08:33N 34°42' E 033°20'0 0.0
2017-Jan-10 07:33N 34°42' E 033°20'0 0.0
2017-Jan-10 06:33N 34°42' E 033°20'0 0.1
2017-Jan-10 05:24N 34°42' E 033°20'0 0.0
2017-Jan-10 04:33N 34°42' E 033°20'0 0.1
2017-Jan-10 03:24N 34°42' E 033°20'0 0.1
2017-Jan-10 01:12N 34°42' E 033°20'0 0.1
2017-Jan-10 00:33N 34°42' E 033°20'0 0.0
2017-Jan-09 23:33N 34°42' E 033°20'0 0.0
2017-Jan-09 22:33N 34°42' E 033°20'0 0.0
2017-Jan-09 21:33N 34°42' E 033°20'0 0.0
2017-Jan-09 20:33N 34°42' E 033°20'0 0.0
2017-Jan-09 19:33N 34°42' E 033°20'0 0.0
2017-Jan-09 18:33N 34°42' E 033°20'0 0.0
2017-Jan-09 17:33N 34°42' E 033°20'0 0.0
2017-Jan-09 16:33N 34°42' E 033°20'0 0.0
2017-Jan-09 15:32N 34°42' E 033°20'0 0.0
2017-Jan-09 14:26N 34°42' E 033°20'0 0.0
2017-Jan-09 13:29N 34°42' E 033°20'0 0.0
2017-Jan-09 12:32N 34°42' E 033°20'0 0.0
2017-Jan-09 11:32N 34°42' E 033°20'0 0.0
2017-Jan-09 10:32N 34°42' E 033°20'0 0.0
2017-Jan-09 09:32N 34°42' E 033°20'3 2.8
2017-Jan-09 08:33N 34°40' E 033°23'10 0.5
2017-Jan-08 10:24N 34°32' E 033°31'1 1.5
2017-Jan-08 09:26N 34°31' E 033°30'  
Track history (hours):
 
Tides and Currents Weather Stations Pressure Air Temp Water Temp Dewpoint Dewpoint Depression Visibility Wind Speed Wind Dir Waves Ship Positions

Torm Horizon

Last reported at 2017-Jan-18 07:23 UTC. Time now 2017-Jan-18 18:04 UTC.
Position N 34°22' E 032°31'.

Length 183 m; draft 7.6 m.

Type: Ship. MMSI: 220566000.

Date/timePositionNaut miles runAvg speedWind from/ knotsBaromVisibWave heightAir tempDewpointWater temp
2017-Jan-18 07:23N 34°22' E 032°31'9 8.9
2017-Jan-18 06:22N 34°20' E 032°42'3 1.7
2017-Jan-18 04:29N 34°19' E 032°45'1 0.8
2017-Jan-18 03:24N 34°18' E 032°46'1 1.1
2017-Jan-18 02:33N 34°18' E 032°47'1 1.2
2017-Jan-18 01:31N 34°18' E 032°49'1 1.3
2017-Jan-18 00:33N 34°18' E 032°50'2 1.6
2017-Jan-17 23:33N 34°17' E 032°52'2 1.9
2017-Jan-17 22:33N 34°17' E 032°54'14 1.7
2017-Jan-17 14:29N 34°10' E 033°08'1011.0
2017-Jan-17 13:34N 34°20' E 033°10'  
2017-Jan-14 15:33N 34°29' E 033°19'1313.0
2017-Jan-14 14:33N 34°42' E 033°20'  
2017-Jan-11 14:28N 34°43' E 033°19'1 0.9
2017-Jan-11 13:31N 34°42' E 033°20'0 0.1
2017-Jan-11 12:22N 34°42' E 033°20'0 0.0
2017-Jan-11 11:19N 34°42' E 033°20'0 0.0
2017-Jan-11 10:31N 34°42' E 033°20'0 0.0
2017-Jan-11 09:31N 34°42' E 033°20'0 0.0
2017-Jan-11 08:28N 34°42' E 033°20'0 0.0
2017-Jan-11 07:31N 34°42' E 033°20'0 0.0
2017-Jan-11 06:25N 34°42' E 033°20'0 0.0
2017-Jan-11 05:34N 34°42' E 033°20'0 0.0
2017-Jan-11 04:34N 34°42' E 033°20'0 0.0
2017-Jan-11 03:33N 34°42' E 033°20'0 0.0
2017-Jan-11 02:33N 34°42' E 033°20'0 0.0
2017-Jan-11 01:30N 34°42' E 033°20'0 0.0
2017-Jan-11 00:33N 34°42' E 033°20'0 0.0
2017-Jan-10 23:30N 34°42' E 033°20'0 0.0
2017-Jan-10 22:33N 34°42' E 033°20'0 0.0
2017-Jan-10 21:33N 34°42' E 033°20'0 0.0
2017-Jan-10 20:33N 34°42' E 033°20'0 0.1
2017-Jan-10 19:33N 34°42' E 033°20'0 0.1
2017-Jan-10 18:33N 34°42' E 033°20'0 0.0
2017-Jan-10 17:33N 34°42' E 033°20'0 0.0
2017-Jan-10 16:33N 34°42' E 033°20'0 0.0
2017-Jan-10 15:30N 34°42' E 033°20'0 0.0
2017-Jan-10 14:33N 34°42' E 033°20'0 0.0
2017-Jan-10 13:33N 34°42' E 033°20'0 0.0
2017-Jan-10 12:33N 34°42' E 033°20'0 0.0
2017-Jan-10 11:30N 34°42' E 033°20'0 0.0
2017-Jan-10 10:33N 34°42' E 033°20'0 0.0
2017-Jan-10 09:33N 34°42' E 033°20'0 0.0
2017-Jan-10 08:33N 34°42' E 033°20'0 0.0
2017-Jan-10 07:33N 34°42' E 033°20'0 0.0
2017-Jan-10 06:33N 34°42' E 033°20'0 0.1
2017-Jan-10 05:24N 34°42' E 033°20'0 0.0
2017-Jan-10 04:33N 34°42' E 033°20'0 0.1
2017-Jan-10 03:24N 34°42' E 033°20'0 0.1
2017-Jan-10 01:12N 34°42' E 033°20'0 0.1
2017-Jan-10 00:33N 34°42' E 033°20'0 0.0
2017-Jan-09 23:33N 34°42' E 033°20'0 0.0
2017-Jan-09 22:33N 34°42' E 033°20'0 0.0
2017-Jan-09 21:33N 34°42' E 033°20'0 0.0
2017-Jan-09 20:33N 34°42' E 033°20'0 0.0
2017-Jan-09 19:33N 34°42' E 033°20'0 0.0
2017-Jan-09 18:33N 34°42' E 033°20'0 0.0
2017-Jan-09 17:33N 34°42' E 033°20'0 0.0
2017-Jan-09 16:33N 34°42' E 033°20'0 0.0
2017-Jan-09 15:32N 34°42' E 033°20'0 0.0
2017-Jan-09 14:26N 34°42' E 033°20'0 0.0
2017-Jan-09 13:29N 34°42' E 033°20'0 0.0
2017-Jan-09 12:32N 34°42' E 033°20'0 0.0
2017-Jan-09 11:32N 34°42' E 033°20'0 0.0
2017-Jan-09 10:32N 34°42' E 033°20'0 0.0
2017-Jan-09 09:32N 34°42' E 033°20'3 2.8
2017-Jan-09 08:33N 34°40' E 033°23'10 0.5
2017-Jan-08 10:24N 34°32' E 033°31'1 1.5
2017-Jan-08 09:26N 34°31' E 033°30'  

Dump ship's entire track history